createdAt,value
2023-03-06T00:01:51.725Z,25.10
2023-03-06T00:04:19.100Z,25.50
2023-03-06T00:06:46.386Z,25.20
2023-03-06T00:09:13.017Z,25.00
2023-03-06T00:11:39.612Z,24.90
2023-03-06T00:14:06.173Z,24.80
2023-03-06T00:16:32.857Z,24.60
2023-03-06T00:18:59.520Z,24.40
2023-03-06T00:21:26.075Z,24.60
2023-03-06T00:23:52.645Z,24.40
2023-03-06T00:26:19.269Z,24.50
2023-03-06T00:28:45.872Z,24.30
2023-03-06T00:31:12.480Z,24.10
2023-03-06T00:33:39.053Z,24.10
2023-03-06T00:36:08.556Z,24.30
2023-03-06T00:38:37.105Z,24.30
2023-03-06T00:41:08.721Z,24.30
2023-03-06T00:43:35.289Z,24.30
2023-03-06T00:46:02.047Z,24.00
2023-03-06T00:48:28.621Z,24.00
2023-03-06T00:50:55.327Z,24.00
2023-03-06T00:53:22.247Z,24.00
2023-03-06T00:55:50.278Z,24.00
2023-03-06T00:58:17.263Z,24.10
2023-03-06T01:00:44.923Z,24.10
2023-03-06T01:03:12.053Z,23.80
2023-03-06T01:05:39.051Z,24.10
2023-03-06T01:08:06.376Z,24.30
2023-03-06T01:10:33.005Z,24.10
2023-03-06T01:12:59.574Z,24.00
2023-03-06T01:15:26.205Z,23.80
2023-03-06T01:17:54.461Z,24.00
2023-03-06T01:20:21.631Z,24.40
2023-03-06T01:22:48.296Z,24.10
2023-03-06T01:25:15.024Z,23.90
2023-03-06T01:27:41.647Z,24.00
2023-03-06T01:30:09.094Z,23.70
2023-03-06T01:32:35.720Z,24.00
2023-03-06T01:35:03.822Z,24.10
2023-03-06T01:37:30.542Z,24.10
2023-03-06T01:39:57.158Z,24.10
2023-03-06T01:42:23.952Z,23.80
2023-03-06T01:45:03.816Z,24.20
2023-03-06T01:47:30.420Z,24.10
2023-03-06T01:49:59.016Z,24.20
2023-03-06T01:52:36.107Z,24.10
2023-03-06T01:55:09.713Z,24.20
2023-03-06T01:57:44.936Z,24.20
2023-03-06T02:00:18.553Z,24.10
2023-03-06T02:02:53.701Z,23.80
2023-03-06T02:05:20.900Z,23.80
2023-03-06T02:07:48.693Z,24.00
2023-03-06T02:10:16.293Z,23.90
2023-03-06T02:12:44.080Z,24.00
2023-03-06T02:15:13.197Z,24.10
2023-03-06T02:17:41.553Z,24.10
2023-03-06T02:20:33.905Z,23.70
2023-03-06T02:23:08.235Z,23.90
2023-03-06T02:25:37.182Z,23.80
2023-03-06T02:28:06.821Z,23.80
2023-03-06T02:30:34.405Z,24.10
2023-03-06T02:33:01.278Z,23.80
2023-03-06T02:35:31.189Z,23.80
2023-03-06T02:38:02.528Z,24.10
2023-03-06T02:40:29.289Z,24.10
2023-03-06T02:42:57.858Z,23.80
2023-03-06T02:45:53.959Z,24.00
2023-03-06T02:48:21.093Z,24.00
2023-03-06T02:50:48.223Z,23.90
2023-03-06T02:53:17.014Z,23.90
2023-03-06T02:55:43.702Z,23.90
2023-03-06T02:58:10.359Z,24.30
2023-03-06T03:00:37.331Z,24.10
2023-03-06T03:03:05.303Z,24.00
2023-03-06T03:05:32.378Z,23.90
2023-03-06T03:07:59.027Z,23.90
2023-03-06T03:10:25.747Z,23.80
2023-03-06T03:12:52.344Z,24.00
2023-03-06T03:15:19.151Z,23.80
2023-03-06T03:17:45.718Z,24.10
2023-03-06T03:20:15.646Z,24.10
2023-03-06T03:22:42.357Z,24.00
2023-03-06T03:25:09.816Z,23.80
2023-03-06T03:27:36.381Z,24.00
2023-03-06T03:30:04.385Z,24.20
2023-03-06T03:32:31.003Z,23.90
2023-03-06T03:34:57.678Z,24.00
2023-03-06T03:37:24.231Z,23.80
2023-03-06T03:39:50.830Z,23.90
2023-03-06T03:42:17.385Z,23.80
2023-03-06T03:44:44.167Z,24.00
2023-03-06T03:47:10.814Z,24.00
2023-03-06T03:49:37.379Z,23.90
2023-03-06T03:52:04.234Z,24.00
2023-03-06T03:54:30.856Z,23.90
2023-03-06T03:56:57.461Z,24.10
2023-03-06T03:59:24.380Z,24.00
2023-03-06T04:01:52.106Z,24.00
2023-03-06T04:04:18.714Z,23.90
2023-03-06T04:06:45.276Z,24.00
2023-03-06T04:09:11.827Z,24.00
2023-03-06T04:11:38.686Z,24.00
2023-03-06T04:14:05.447Z,24.10
2023-03-06T04:16:32.032Z,23.80
2023-03-06T04:18:58.605Z,23.90
2023-03-06T04:21:25.259Z,24.00
2023-03-06T04:23:51.951Z,24.20
2023-03-06T04:26:18.532Z,24.00
2023-03-06T04:28:45.113Z,24.20
2023-03-06T04:31:13.085Z,24.20
2023-03-06T04:33:39.856Z,24.00
2023-03-06T04:36:06.567Z,24.00
2023-03-06T04:38:33.213Z,24.00
2023-03-06T04:40:59.833Z,23.80
2023-03-06T04:43:26.676Z,24.00
2023-03-06T04:45:53.308Z,23.80
2023-03-06T04:48:19.941Z,23.70
2023-03-06T04:50:46.663Z,23.70
2023-03-06T04:53:14.515Z,24.00
2023-03-06T04:55:41.120Z,24.10
2023-03-06T04:58:07.710Z,23.70
2023-03-06T05:00:34.687Z,23.90
2023-03-06T05:03:02.313Z,24.00
2023-03-06T05:05:29.705Z,23.70
2023-03-06T05:07:56.825Z,24.00
2023-03-06T05:10:23.790Z,23.80
2023-03-06T05:12:50.426Z,23.80
2023-03-06T05:15:17.595Z,23.90
2023-03-06T05:17:44.676Z,24.00
2023-03-06T05:20:12.816Z,23.90
2023-03-06T05:22:39.833Z,23.70
2023-03-06T05:25:07.403Z,23.70
2023-03-06T05:27:34.443Z,24.00
2023-03-06T05:30:01.051Z,24.10
2023-03-06T05:32:27.920Z,23.90
2023-03-06T05:34:54.685Z,24.40
2023-03-06T05:37:22.980Z,23.80
2023-03-06T05:39:50.345Z,23.90
2023-03-06T05:42:16.938Z,23.90
2023-03-06T05:44:43.774Z,24.00
2023-03-06T05:47:11.880Z,24.00
2023-03-06T05:49:38.574Z,24.10
2023-03-06T05:52:06.537Z,24.20
2023-03-06T05:54:35.060Z,23.90
2023-03-06T05:57:02.697Z,24.00
2023-03-06T05:59:29.316Z,23.90
2023-03-06T06:01:56.277Z,24.00
2023-03-06T06:04:24.232Z,24.00
2023-03-06T06:06:59.298Z,24.10
2023-03-06T06:09:27.088Z,24.00
2023-03-06T06:12:00.423Z,24.00
2023-03-06T06:14:27.466Z,24.10
2023-03-06T06:16:54.561Z,24.00
2023-03-06T06:19:22.400Z,24.30
2023-03-06T06:21:53.966Z,24.20
2023-03-06T06:24:23.253Z,24.30
2023-03-06T06:26:51.424Z,23.90
2023-03-06T06:29:18.413Z,24.00
2023-03-06T06:31:45.272Z,24.20
2023-03-06T06:34:12.575Z,24.00
2023-03-06T06:36:39.733Z,24.00
2023-03-06T06:39:07.741Z,24.40
2023-03-06T06:41:51.027Z,24.20
2023-03-06T06:44:21.013Z,24.10
2023-03-06T06:49:35.302Z,23.60
2023-03-06T06:52:02.117Z,23.90
2023-03-06T06:54:28.684Z,24.00
2023-03-06T06:56:55.247Z,24.10
2023-03-06T06:59:23.717Z,24.10
2023-03-06T07:01:51.249Z,24.10
2023-03-06T07:04:19.024Z,24.00
2023-03-06T07:06:45.701Z,24.10
2023-03-06T07:09:12.635Z,24.00
2023-03-06T07:11:39.997Z,24.20
2023-03-06T07:14:06.680Z,23.80
2023-03-06T07:16:33.394Z,23.90
2023-03-06T07:18:59.940Z,24.10
2023-03-06T07:21:26.574Z,24.20
2023-03-06T07:23:54.286Z,25.30
2023-03-06T07:26:20.868Z,25.50
2023-03-06T07:28:52.589Z,25.60
2023-03-06T07:31:22.351Z,26.10
2023-03-06T07:33:50.007Z,25.80
2023-03-06T07:36:17.131Z,26.70
2023-03-06T07:38:43.770Z,26.10
2023-03-06T07:41:13.450Z,25.50
2023-03-06T07:43:41.349Z,25.60
2023-03-06T07:46:09.277Z,25.50
2023-03-06T07:48:37.340Z,25.50
2023-03-06T07:51:06.303Z,25.50
2023-03-06T07:53:33.758Z,25.40
2023-03-06T07:56:00.758Z,25.30
2023-03-06T07:58:27.354Z,25.30
2023-03-06T08:00:53.967Z,25.20
2023-03-06T08:03:20.595Z,25.10
2023-03-06T08:05:47.172Z,25.40
2023-03-06T08:08:13.865Z,25.50
2023-03-06T08:10:40.501Z,25.40
2023-03-06T08:13:07.075Z,25.40
2023-03-06T08:15:33.632Z,25.10
2023-03-06T08:18:00.239Z,25.50
2023-03-06T08:20:26.893Z,25.10
2023-03-06T08:22:53.473Z,25.40
2023-03-06T08:25:20.124Z,25.40
2023-03-06T08:27:47.403Z,25.20
2023-03-06T08:30:14.668Z,25.50
2023-03-06T08:32:41.306Z,25.30
2023-03-06T08:35:08.391Z,26.00
2023-03-06T08:37:35.084Z,27.00
2023-03-06T08:40:04.481Z,27.10
2023-03-06T08:42:31.976Z,26.90
2023-03-06T08:44:58.587Z,26.80
2023-03-06T08:47:25.168Z,27.10
2023-03-06T08:49:51.758Z,27.20
2023-03-06T08:52:19.786Z,27.40
2023-03-06T08:54:46.812Z,28.30
2023-03-06T08:57:13.365Z,26.30
2023-03-06T08:59:40.013Z,26.30
2023-03-06T09:02:07.633Z,25.70
2023-03-06T09:04:34.759Z,25.70
2023-03-06T09:07:01.639Z,25.90
2023-03-06T09:09:28.225Z,25.40
2023-03-06T09:11:54.988Z,25.70
2023-03-06T09:14:21.616Z,25.70
2023-03-06T09:16:48.267Z,25.00
2023-03-06T09:19:14.912Z,25.20
2023-03-06T09:21:41.533Z,25.20
2023-03-06T09:24:08.484Z,25.10
2023-03-06T09:26:45.601Z,25.20
2023-03-06T09:29:15.865Z,25.40
2023-03-06T09:31:42.444Z,25.30
2023-03-06T09:34:09.059Z,25.10
2023-03-06T09:36:45.849Z,25.10
2023-03-06T09:39:21.737Z,25.00
2023-03-06T09:41:49.604Z,24.90
2023-03-06T09:44:20.972Z,24.90
2023-03-06T09:47:09.161Z,24.90
2023-03-06T09:50:01.173Z,25.20
2023-03-06T09:52:59.357Z,25.00
2023-03-06T09:55:30.504Z,26.30
2023-03-06T09:58:18.294Z,25.40
2023-03-06T10:01:00.717Z,25.10
2023-03-06T10:03:38.875Z,25.40
2023-03-06T10:06:14.824Z,25.40
2023-03-06T10:09:13.387Z,25.30
2023-03-06T10:11:47.055Z,25.30
2023-03-06T10:14:36.784Z,25.10
2023-03-06T10:17:05.228Z,25.00
2023-03-06T10:19:35.570Z,25.30
2023-03-06T10:22:23.562Z,26.30
2023-03-06T10:25:14.781Z,26.40
2023-03-06T10:27:48.391Z,26.90
2023-03-06T10:30:42.874Z,26.70
2023-03-06T10:33:35.092Z,26.90
2023-03-06T10:36:01.760Z,26.50
2023-03-06T10:38:38.257Z,26.30
2023-03-06T10:41:11.041Z,26.50
2023-03-06T10:43:45.222Z,26.90
2023-03-06T10:46:25.852Z,26.80
2023-03-06T10:48:59.461Z,27.20
2023-03-06T10:51:27.308Z,26.90
2023-03-06T10:53:57.658Z,26.90
2023-03-06T10:56:41.870Z,26.60
2023-03-06T10:59:18.097Z,26.80
2023-03-06T11:01:45.719Z,26.70
2023-03-06T11:04:30.102Z,26.60
2023-03-06T11:07:19.622Z,26.90
2023-03-06T11:09:59.761Z,27.00
2023-03-06T11:12:29.219Z,26.60
2023-03-06T11:15:14.315Z,26.70
2023-03-06T11:18:02.826Z,26.70
2023-03-06T11:20:51.098Z,26.60
2023-03-06T11:23:41.851Z,26.70
2023-03-06T11:26:17.356Z,26.70
2023-03-06T11:29:20.320Z,26.20
2023-03-06T11:31:59.669Z,26.70
2023-03-06T11:34:50.995Z,26.60
2023-03-06T11:37:23.880Z,26.50
2023-03-06T11:40:12.775Z,26.60
2023-03-06T11:43:02.334Z,26.50
2023-03-06T11:45:37.171Z,27.20
2023-03-06T11:48:16.460Z,27.70
2023-03-06T11:51:17.187Z,28.80
2023-03-06T11:53:43.942Z,28.40
2023-03-06T11:56:19.834Z,28.30
2023-03-06T11:59:17.374Z,28.50
2023-03-06T12:02:17.463Z,28.10
2023-03-06T12:05:12.685Z,28.20
2023-03-06T12:08:10.697Z,28.20
2023-03-06T12:11:14.788Z,28.50
2023-03-06T12:13:57.070Z,27.90
2023-03-06T12:16:34.592Z,28.00
2023-03-06T12:19:38.321Z,28.50
2023-03-06T12:22:42.257Z,28.30
2023-03-06T12:25:37.523Z,28.10
2023-03-06T12:28:34.197Z,27.90
2023-03-06T12:31:39.003Z,27.60
2023-03-06T12:34:35.352Z,28.20
2023-03-06T12:37:23.718Z,28.30
2023-03-06T12:40:13.908Z,27.70
2023-03-06T12:43:10.365Z,28.00
2023-03-06T12:45:37.914Z,27.90
2023-03-06T12:48:17.806Z,28.10
2023-03-06T12:50:44.906Z,27.90
2023-03-06T12:53:25.499Z,28.10
2023-03-06T12:55:53.171Z,28.20
2023-03-06T12:58:31.608Z,28.10
2023-03-06T13:01:37.728Z,27.80
2023-03-06T13:04:34.826Z,27.90
2023-03-06T13:07:30.150Z,27.90
2023-03-06T13:10:28.587Z,27.80
2023-03-06T13:13:17.805Z,27.80
2023-03-06T13:15:45.892Z,27.70
2023-03-06T13:18:21.364Z,27.30
2023-03-06T13:20:57.397Z,27.80
2023-03-06T13:23:29.858Z,27.90
2023-03-06T13:26:05.296Z,27.70
2023-03-06T13:28:47.667Z,27.80
2023-03-06T13:31:33.000Z,28.00
2023-03-06T13:34:00.704Z,27.60
2023-03-06T13:36:29.908Z,27.50
2023-03-06T13:39:08.612Z,27.70
2023-03-06T13:41:37.589Z,27.50
2023-03-06T13:44:24.375Z,27.40
2023-03-06T13:47:05.990Z,27.70
2023-03-06T13:49:33.912Z,27.60
2023-03-06T13:52:10.963Z,27.70
2023-03-06T13:55:10.610Z,27.50
2023-03-06T13:57:59.263Z,18.50
2023-03-06T14:00:46.378Z,25.60
2023-03-06T14:03:32.314Z,25.90
2023-03-06T14:05:59.017Z,25.50
2023-03-06T14:08:32.054Z,25.80
2023-03-06T14:11:17.410Z,25.70
2023-03-06T14:13:50.534Z,25.80
2023-03-06T14:16:49.277Z,25.80
2023-03-06T14:19:18.398Z,25.20
2023-03-06T14:21:44.905Z,26.00
2023-03-06T14:24:16.578Z,25.50
2023-03-06T14:26:51.727Z,25.40
2023-03-06T14:29:25.020Z,25.60
2023-03-06T14:31:54.210Z,25.70
2023-03-06T14:34:23.498Z,25.70
2023-03-06T14:36:52.484Z,25.70
2023-03-06T14:39:38.068Z,25.60
2023-03-06T14:42:15.279Z,25.60
2023-03-06T14:44:42.069Z,25.30
2023-03-06T14:47:33.282Z,25.70
2023-03-06T14:50:18.745Z,25.30
2023-03-06T14:52:45.922Z,25.40
2023-03-06T14:55:19.066Z,25.30
2023-03-06T14:57:48.881Z,25.50
2023-03-06T15:00:20.451Z,25.30
2023-03-06T15:02:48.807Z,25.30
2023-03-06T15:05:28.337Z,25.20
2023-03-06T15:07:59.262Z,25.30
2023-03-06T15:10:29.067Z,25.30
2023-03-06T15:12:55.729Z,25.20
2023-03-06T15:15:28.718Z,25.20
2023-03-06T15:17:55.332Z,24.80
2023-03-06T15:20:53.037Z,24.80
2023-03-06T15:23:26.247Z,25.00
2023-03-06T15:25:58.658Z,25.00
2023-03-06T15:28:31.514Z,24.90
2023-03-06T15:31:17.283Z,24.80
2023-03-06T15:33:44.102Z,24.70
2023-03-06T15:36:21.093Z,24.90
2023-03-06T15:38:47.927Z,24.70
2023-03-06T15:41:31.669Z,24.80
2023-03-06T15:43:59.881Z,24.70
2023-03-06T15:46:26.968Z,24.40
2023-03-06T15:49:00.278Z,24.70
2023-03-06T15:51:28.830Z,24.20
2023-03-06T15:54:09.800Z,24.70
2023-03-06T15:56:40.758Z,24.40
2023-03-06T15:59:10.753Z,24.30
2023-03-06T16:01:37.604Z,24.50
2023-03-06T16:04:04.357Z,24.30
2023-03-06T16:06:30.954Z,24.50
2023-03-06T16:08:57.566Z,24.20
2023-03-06T16:11:38.638Z,24.10
2023-03-06T16:14:21.156Z,23.50
2023-03-06T16:16:48.402Z,23.70
2023-03-06T16:19:25.923Z,23.50
2023-03-06T16:21:53.639Z,23.60
2023-03-06T16:24:20.267Z,23.80
2023-03-06T16:26:50.810Z,23.70
2023-03-06T16:29:23.388Z,23.90
2023-03-06T16:31:50.730Z,23.80
2023-03-06T16:34:19.702Z,23.60
2023-03-06T16:36:48.473Z,24.00
2023-03-06T16:39:17.118Z,23.60
2023-03-06T16:41:45.845Z,23.80
2023-03-06T16:44:12.907Z,23.60
2023-03-06T16:46:42.695Z,23.80
2023-03-06T16:49:16.065Z,23.90
2023-03-06T16:51:42.694Z,23.80
2023-03-06T16:54:09.323Z,23.90
2023-03-06T16:56:35.896Z,23.90
2023-03-06T16:59:02.557Z,24.00
2023-03-06T17:01:29.209Z,23.70
2023-03-06T17:03:55.826Z,24.00
2023-03-06T17:06:23.265Z,23.70
2023-03-06T17:08:50.686Z,24.00
2023-03-06T17:11:17.817Z,24.00
2023-03-06T17:13:44.409Z,23.60
2023-03-06T17:16:16.304Z,24.00
2023-03-06T17:18:44.652Z,23.70
2023-03-06T17:21:12.596Z,24.20
2023-03-06T17:23:39.208Z,24.50
2023-03-06T17:26:11.407Z,24.20
2023-03-06T17:28:39.314Z,24.20
2023-03-06T17:31:20.042Z,24.40
2023-03-06T17:33:47.165Z,24.50
2023-03-06T17:36:14.516Z,24.20
2023-03-06T17:38:42.234Z,24.40
2023-03-06T17:41:10.411Z,24.50
2023-03-06T17:43:38.546Z,24.30
2023-03-06T17:46:07.131Z,24.30
2023-03-06T17:48:34.605Z,24.50
2023-03-06T17:51:01.790Z,24.20
2023-03-06T17:53:28.404Z,24.40
2023-03-06T17:55:57.896Z,24.40
2023-03-06T17:58:25.698Z,24.50
2023-03-06T18:00:52.341Z,24.50
2023-03-06T18:03:19.152Z,24.30
2023-03-06T18:05:45.751Z,24.30
2023-03-06T18:08:12.346Z,24.20
2023-03-06T18:10:40.683Z,24.40
2023-03-06T18:13:08.285Z,24.80
2023-03-06T18:15:38.667Z,24.70
2023-03-06T18:18:05.413Z,24.20
2023-03-06T18:20:32.796Z,24.00
2023-03-06T18:23:03.389Z,23.70
2023-03-06T18:25:31.624Z,23.30
2023-03-06T18:27:58.627Z,23.70
2023-03-06T18:30:25.935Z,23.40
2023-03-06T18:32:53.183Z,23.40
2023-03-06T18:35:20.120Z,23.40
2023-03-06T18:37:46.727Z,23.10
2023-03-06T18:40:13.801Z,23.30
2023-03-06T18:42:40.394Z,23.10
2023-03-06T18:45:07.636Z,22.90
2023-03-06T18:47:34.213Z,22.90
2023-03-06T18:50:02.653Z,22.90
2023-03-06T18:52:29.257Z,22.80
2023-03-06T18:54:55.816Z,24.30
2023-03-06T18:57:22.377Z,24.70
2023-03-06T18:59:49.121Z,24.80
2023-03-06T19:02:15.761Z,25.20
2023-03-06T19:04:42.338Z,25.30
2023-03-06T19:07:08.930Z,25.30
2023-03-06T19:09:35.509Z,25.60
2023-03-06T19:12:03.451Z,26.10
2023-03-06T19:14:30.218Z,25.80
2023-03-06T19:16:56.934Z,25.70
2023-03-06T19:19:26.270Z,25.80
2023-03-06T19:21:53.494Z,25.70
2023-03-06T19:24:20.040Z,26.20
2023-03-06T19:26:46.882Z,25.70
2023-03-06T19:29:13.442Z,25.40
2023-03-06T19:31:40.466Z,25.80
2023-03-06T19:34:07.189Z,25.90
2023-03-06T19:36:35.427Z,25.50
2023-03-06T19:39:04.839Z,25.30
2023-03-06T19:41:31.503Z,25.40
2023-03-06T19:44:00.173Z,25.30
2023-03-06T19:46:27.193Z,25.50
2023-03-06T19:48:57.680Z,25.60
2023-03-06T19:51:25.463Z,25.20
2023-03-06T19:53:52.359Z,25.00
2023-03-06T19:56:26.166Z,25.40
2023-03-06T19:58:53.429Z,25.00
2023-03-06T20:01:21.550Z,24.90
2023-03-06T20:03:50.590Z,24.40
2023-03-06T20:06:19.391Z,24.10
2023-03-06T20:08:47.643Z,24.20
2023-03-06T20:11:19.995Z,23.60
2023-03-06T20:13:47.751Z,23.70
2023-03-06T20:16:15.125Z,23.80
2023-03-06T20:18:41.742Z,23.70
2023-03-06T20:21:08.376Z,23.70
2023-03-06T20:23:35.455Z,23.60
2023-03-06T20:26:09.463Z,23.70
2023-03-06T20:28:37.736Z,23.40
2023-03-06T20:31:13.807Z,23.30
2023-03-06T20:33:40.548Z,23.50
2023-03-06T20:36:14.683Z,23.50
2023-03-06T20:38:41.641Z,23.20
2023-03-06T20:41:24.004Z,23.00
2023-03-06T20:43:51.161Z,23.20
2023-03-06T20:46:18.646Z,23.20
2023-03-06T20:48:49.013Z,23.30
2023-03-06T20:51:17.094Z,22.90
2023-03-06T20:53:43.784Z,22.70
2023-03-06T20:56:16.068Z,22.90
2023-03-06T20:58:42.828Z,22.80
2023-03-06T21:01:09.439Z,22.60
2023-03-06T21:03:36.003Z,22.50
2023-03-06T21:06:02.627Z,22.80
2023-03-06T21:08:29.244Z,22.90
2023-03-06T21:10:55.834Z,22.70
2023-03-06T21:13:22.446Z,22.70
2023-03-06T21:15:49.070Z,23.00
2023-03-06T21:18:15.675Z,23.30
2023-03-06T21:20:43.070Z,23.10
2023-03-06T21:23:09.648Z,23.20
2023-03-06T21:25:36.244Z,22.80
2023-03-06T21:28:03.046Z,22.90
2023-03-06T21:30:30.236Z,23.20
2023-03-06T21:32:56.907Z,22.90
2023-03-06T21:35:23.499Z,23.00
2023-03-06T21:37:50.117Z,22.80
2023-03-06T21:40:16.858Z,23.00
2023-03-06T21:42:43.490Z,23.30
2023-03-06T21:45:10.470Z,23.20
2023-03-06T21:47:40.911Z,23.00
2023-03-06T21:50:09.752Z,23.00
2023-03-06T21:52:36.507Z,23.10
2023-03-06T21:55:03.571Z,23.10
2023-03-06T21:57:30.167Z,23.20
2023-03-06T21:59:56.756Z,23.20
2023-03-06T22:02:23.353Z,23.30
2023-03-06T22:04:52.061Z,23.00
2023-03-06T22:07:20.213Z,23.70
2023-03-06T22:09:47.271Z,23.30
2023-03-06T22:12:13.904Z,23.40
2023-03-06T22:14:42.712Z,23.40
2023-03-06T22:17:09.293Z,23.20
2023-03-06T22:19:35.847Z,23.30
2023-03-06T22:22:03.708Z,23.20
2023-03-06T22:24:31.669Z,23.20
2023-03-06T22:26:58.272Z,23.20
2023-03-06T22:29:24.930Z,23.20
2023-03-06T22:31:52.028Z,23.30
2023-03-06T22:34:18.724Z,23.30
2023-03-06T22:36:45.295Z,23.70
2023-03-06T22:39:13.424Z,24.00
2023-03-06T22:41:40.330Z,24.20
2023-03-06T22:44:06.955Z,24.40
2023-03-06T22:46:33.610Z,24.30
2023-03-06T22:49:01.148Z,24.50
2023-03-06T22:51:28.796Z,24.50
2023-03-06T22:53:55.611Z,24.80
2023-03-06T22:56:22.551Z,24.20
2023-03-06T22:58:49.461Z,24.20
2023-03-06T23:01:18.723Z,24.50
2023-03-06T23:03:54.301Z,24.00
2023-03-06T23:06:24.129Z,24.30
2023-03-06T23:08:53.362Z,23.90
2023-03-06T23:11:21.346Z,23.70
2023-03-06T23:13:48.027Z,23.90
2023-03-06T23:16:14.984Z,23.80
2023-03-06T23:18:41.557Z,23.60
2023-03-06T23:21:13.738Z,23.60
2023-03-06T23:23:40.853Z,23.60
2023-03-06T23:26:08.916Z,23.40
2023-03-06T23:28:35.853Z,23.80
2023-03-06T23:31:09.751Z,23.40
2023-03-06T23:33:36.977Z,23.30
2023-03-06T23:36:05.639Z,23.50
2023-03-06T23:38:32.666Z,23.50
2023-03-06T23:41:07.676Z,23.20
2023-03-06T23:43:34.902Z,23.10
2023-03-06T23:46:01.686Z,22.90
2023-03-06T23:48:28.997Z,23.10
2023-03-06T23:50:55.758Z,23.10
2023-03-06T23:53:22.990Z,23.30
2023-03-06T23:55:51.078Z,23.10
2023-03-06T23:58:19.188Z,23.10
